Time;durP1;ratioP1;P1;durP2;ratioP2;P2;SDS_P1;SDS_P2;PMS_P1;PMS_P2;Temp;Humidity;BMP_temperature;BMP_pressure;BME280_temperature;BME280_humidity;BME280_pressure;Samples;Min_cycle;Max_cycle;Signal;HPM_P1;HPM_P2
2023/06/13 00:00:49;;;;;;;4.43;2.60;;;20.20;94.20;;;;;;5024141;28;20057;-71
2023/06/13 00:03:15;;;;;;;5.97;2.63;;;20.10;94.20;;;;;;5024050;28;20049;-71
2023/06/13 00:05:45;;;;;;;4.78;2.58;;;20.10;94.20;;;;;;5025395;28;20491;-71
2023/06/13 00:08:17;;;;;;;4.03;2.45;;;20.10;94.10;;;;;;5025154;28;20041;-71
2023/06/13 00:10:44;;;;;;;4.50;3.10;;;20.00;94.10;;;;;;5025393;28;20045;-71
2023/06/13 00:13:10;;;;;;;7.55;2.72;;;20.00;94.00;;;;;;5024306;28;20042;-71
2023/06/13 00:15:35;;;;;;;4.00;2.53;;;20.00;94.10;;;;;;5025151;28;20053;-71
2023/06/13 00:18:01;;;;;;;3.65;2.38;;;19.90;94.30;;;;;;5024939;28;20045;-72
2023/06/13 00:20:29;;;;;;;4.60;3.13;;;19.90;93.90;;;;;;5024976;28;20737;-72
2023/06/13 00:22:56;;;;;;;3.40;2.38;;;19.90;93.80;;;;;;5025561;28;20132;-71
2023/06/13 00:25:21;;;;;;;4.90;3.10;;;19.90;93.70;;;;;;5025066;28;20053;-71
2023/06/13 00:27:47;;;;;;;3.45;2.60;;;19.90;93.70;;;;;;5024201;28;20411;-71
2023/06/13 00:30:12;;;;;;;3.25;2.47;;;19.80;93.60;;;;;;5024303;28;20045;-71
2023/06/13 00:32:38;;;;;;;4.25;3.00;;;19.80;93.50;;;;;;5023154;28;20107;-71
2023/06/13 00:35:04;;;;;;;5.97;3.38;;;19.80;93.40;;;;;;5023285;28;20049;-71
2023/06/13 00:37:34;;;;;;;5.43;2.47;;;19.80;93.20;;;;;;5025149;28;20452;-71
2023/06/13 00:39:59;;;;;;;4.20;2.80;;;19.70;93.20;;;;;;5025063;28;20140;-72
2023/06/13 00:42:25;;;;;;;3.47;2.38;;;19.70;93.10;;;;;;5024433;28;20630;-71
2023/06/13 00:44:50;;;;;;;4.03;2.72;;;19.70;93.40;;;;;;5024424;28;20116;-71
2023/06/13 00:47:17;;;;;;;6.18;2.95;;;19.70;92.90;;;;;;5024443;28;20048;-71
2023/06/13 00:49:43;;;;;;;6.32;2.67;;;19.70;92.70;;;;;;5024550;28;20509;-71
2023/06/13 00:52:09;;;;;;;3.90;2.55;;;19.70;92.80;;;;;;5024589;28;20076;-71
2023/06/13 00:54:38;;;;;;;8.18;3.00;;;19.60;92.70;;;;;;5024722;28;20127;-71
2023/06/13 00:57:07;;;;;;;3.70;2.38;;;19.60;92.60;;;;;;5005995;28;20045;-71
2023/06/13 00:59:33;;;;;;;4.95;2.30;;;19.60;92.30;;;;;;5024869;28;20068;-71
2023/06/13 01:01:59;;;;;;;5.18;2.53;;;19.60;92.80;;;;;;5024421;28;20057;-73
2023/06/13 01:04:27;;;;;;;5.07;2.58;;;19.50;92.30;;;;;;5006663;28;20099;-71
2023/06/13 01:06:52;;;;;;;4.18;2.47;;;19.50;92.40;;;;;;5022927;28;20041;-71
2023/06/13 01:09:18;;;;;;;2.65;1.90;;;19.50;92.30;;;;;;5024274;28;20045;-71
2023/06/13 01:11:47;;;;;;;4.78;2.50;;;19.40;92.30;;;;;;5024450;28;20081;-71
2023/06/13 01:14:37;;;;;;;3.65;2.90;;;19.40;92.40;;;;;;5086664;23;20050;-69
2023/06/13 01:17:20;;;;;;;5.00;2.25;;;19.40;92.00;;;;;;5004841;28;20080;-70
2023/06/13 01:19:58;;;;;;;3.63;2.50;;;19.40;91.80;;;;;;5003496;28;20034;-69
2023/06/13 01:22:37;;;;;;;3.55;2.20;;;19.30;91.80;;;;;;5004621;28;20074;-69
2023/06/13 01:25:21;;;;;;;3.30;2.28;;;19.30;92.00;;;;;;5004702;28;20042;-69
2023/06/13 01:27:49;;;;;;;2.67;1.90;;;19.20;92.10;;;;;;5003720;28;20050;-69
2023/06/13 01:30:15;;;;;;;4.63;2.35;;;19.20;92.60;;;;;;5004308;28;20064;-69
2023/06/13 01:32:44;;;;;;;2.47;1.92;;;19.10;92.60;;;;;;5004826;28;20084;-69
2023/06/13 01:35:10;;;;;;;3.85;2.58;;;19.10;92.70;;;;;;5004358;28;20077;-70
2023/06/13 01:37:36;;;;;;;3.47;2.40;;;19.10;92.80;;;;;;5005115;28;20046;-69
2023/06/13 01:40:04;;;;;;;4.50;2.22;;;19.10;92.90;;;;;;5004834;28;20707;-69
2023/06/13 01:42:29;;;;;;;3.53;2.20;;;19.00;92.90;;;;;;5004002;28;20085;-70
2023/06/13 01:44:55;;;;;;;5.22;2.33;;;19.00;93.00;;;;;;4990785;28;20085;-69
2023/06/13 01:47:32;;;;;;;3.00;2.20;;;18.90;93.00;;;;;;4985644;28;20121;-69
2023/06/13 01:50:30;;;;;;;4.80;2.40;;;18.90;93.00;;;;;;4987465;28;20046;-69
2023/06/13 01:53:14;;;;;;;5.90;2.97;;;18.80;92.70;;;;;;5005232;28;20104;-69
2023/06/13 01:55:43;;;;;;;5.30;2.65;;;18.80;93.00;;;;;;5003468;28;20132;-69
2023/06/13 01:58:18;;;;;;;4.28;2.60;;;18.70;93.70;;;;;;5003385;28;20042;-69
2023/06/13 02:00:45;;;;;;;3.92;2.10;;;18.70;93.50;;;;;;4995971;28;20050;-69
2023/06/13 02:03:13;;;;;;;4.13;2.35;;;18.60;93.80;;;;;;5002960;28;20077;-69
2023/06/13 02:05:38;;;;;;;3.10;2.00;;;18.60;94.20;;;;;;5004262;28;20046;-70
2023/06/13 02:08:04;;;;;;;2.50;2.03;;;18.50;94.00;;;;;;5004377;28;20042;-69
2023/06/13 02:10:30;;;;;;;5.30;2.67;;;18.50;94.20;;;;;;5004280;28;20503;-70
2023/06/13 02:12:55;;;;;;;3.10;2.05;;;18.50;94.30;;;;;;5003809;28;20104;-69
2023/06/13 02:15:21;;;;;;;5.20;2.28;;;18.40;94.40;;;;;;5003916;28;20556;-69
2023/06/13 02:17:47;;;;;;;2.35;2.10;;;18.40;94.50;;;;;;5004463;28;20054;-69
2023/06/13 02:20:13;;;;;;;4.50;2.28;;;18.40;94.50;;;;;;5003042;28;20054;-69
2023/06/13 02:22:38;;;;;;;3.70;3.30;;;18.30;94.60;;;;;;5003820;28;20552;-69
2023/06/13 02:25:05;;;;;;;2.65;2.45;;;18.30;94.80;;;;;;4990421;28;20073;-69
2023/06/13 02:27:31;;;;;;;3.00;2.33;;;18.20;94.80;;;;;;4987203;28;20077;-70
2023/06/13 02:29:57;;;;;;;3.97;2.45;;;18.10;94.90;;;;;;4998244;28;20074;-69
2023/06/13 02:32:24;;;;;;;5.22;2.83;;;18.10;95.10;;;;;;5006274;28;20577;-68
2023/06/13 02:34:51;;;;;;;5.78;3.22;;;18.00;95.20;;;;;;5007718;28;20451;-68
2023/06/13 02:37:18;;;;;;;2.67;2.13;;;18.00;95.30;;;;;;5005683;28;20125;-69
2023/06/13 02:39:43;;;;;;;3.95;2.30;;;17.90;95.50;;;;;;5007099;28;20695;-69
2023/06/13 02:42:09;;;;;;;4.78;2.58;;;17.90;95.50;;;;;;5004839;28;20049;-69
2023/06/13 02:44:34;;;;;;;4.35;2.60;;;17.90;95.50;;;;;;4997334;28;20417;-69
2023/06/13 02:47:00;;;;;;;4.10;2.15;;;17.90;95.60;;;;;;4992502;28;20042;-70
2023/06/13 02:49:26;;;;;;;3.70;2.20;;;17.80;95.60;;;;;;5006491;28;20030;-69
2023/06/13 02:51:51;;;;;;;2.92;2.25;;;17.80;95.60;;;;;;5006919;28;20041;-69
2023/06/13 02:54:17;;;;;;;3.83;2.70;;;17.80;95.70;;;;;;4992304;28;20081;-69
2023/06/13 02:56:43;;;;;;;5.80;2.70;;;17.70;95.70;;;;;;4987007;28;20154;-69
2023/06/13 02:59:09;;;;;;;3.67;2.28;;;17.70;95.90;;;;;;4987390;28;20452;-69
2023/06/13 03:01:34;;;;;;;3.38;2.10;;;17.70;96.00;;;;;;4995147;28;20168;-69
2023/06/13 03:04:00;;;;;;;5.18;2.33;;;17.70;96.00;;;;;;5005647;28;20490;-70
2023/06/13 03:06:26;;;;;;;3.08;2.13;;;17.60;96.00;;;;;;4993106;28;20046;-71
2023/06/13 03:08:52;;;;;;;4.90;2.33;;;17.60;96.10;;;;;;4970371;28;20652;-71
2023/06/13 03:11:18;;;;;;;5.53;2.53;;;17.60;96.20;;;;;;4969769;28;20046;-71
2023/06/13 03:13:45;;;;;;;3.35;2.42;;;17.50;96.10;;;;;;4986296;28;20042;-71
2023/06/13 03:16:11;;;;;;;3.58;2.67;;;17.50;96.20;;;;;;4986503;28;20118;-71
2023/06/13 03:18:37;;;;;;;3.83;2.28;;;17.50;96.20;;;;;;4986238;28;20149;-71
2023/06/13 03:21:03;;;;;;;4.47;2.72;;;17.40;96.20;;;;;;4985862;28;20520;-71
2023/06/13 03:23:29;;;;;;;2.40;1.92;;;17.40;96.30;;;;;;4987529;28;20835;-71
2023/06/13 03:25:55;;;;;;;4.55;3.42;;;17.50;96.30;;;;;;4987776;28;20035;-71
2023/06/13 03:28:21;;;;;;;2.70;2.33;;;17.40;96.20;;;;;;4986009;28;20049;-71
2023/06/13 03:30:46;;;;;;;3.60;2.05;;;17.40;96.20;;;;;;4985295;28;20049;-71
2023/06/13 03:33:12;;;;;;;3.78;2.30;;;17.40;96.20;;;;;;4987010;28;20081;-71
2023/06/13 03:35:38;;;;;;;3.83;2.58;;;17.40;96.20;;;;;;4987105;28;20046;-71
2023/06/13 03:38:04;;;;;;;8.15;3.97;;;17.40;96.20;;;;;;4985978;28;20050;-71
2023/06/13 03:40:29;;;;;;;3.17;2.55;;;17.40;96.10;;;;;;4987238;28;20122;-72
2023/06/13 03:42:56;;;;;;;4.75;2.65;;;17.30;96.10;;;;;;4999239;28;20714;-71
2023/06/13 03:45:24;;;;;;;8.25;2.30;;;17.30;96.00;;;;;;5004805;28;20129;-71
2023/06/13 03:47:50;;;;;;;3.67;2.22;;;17.30;96.00;;;;;;5006484;28;20467;-71
2023/06/13 03:50:16;;;;;;;4.95;2.40;;;17.30;95.90;;;;;;5005926;28;20049;-71
2023/06/13 03:52:41;;;;;;;3.08;2.53;;;17.30;95.80;;;;;;5005676;28;20038;-71
2023/06/13 03:55:07;;;;;;;3.72;2.55;;;17.30;95.80;;;;;;5006046;28;20100;-71
2023/06/13 03:57:33;;;;;;;8.57;2.65;;;17.30;95.70;;;;;;5005446;28;20056;-72
2023/06/13 03:59:58;;;;;;;4.68;2.60;;;17.30;95.70;;;;;;5005220;28;20558;-71
2023/06/13 04:02:24;;;;;;;3.80;2.55;;;17.30;95.50;;;;;;4989909;28;20404;-71
2023/06/13 04:04:52;;;;;;;3.35;2.58;;;17.30;95.60;;;;;;4986435;28;20580;-71
2023/06/13 04:07:21;;;;;;;4.53;2.60;;;17.30;95.50;;;;;;4997563;28;20049;-71
2023/06/13 04:09:47;;;;;;;3.88;2.20;;;17.20;95.40;;;;;;5005779;28;20054;-71
2023/06/13 04:12:12;;;;;;;4.45;2.92;;;17.20;95.40;;;;;;5003089;28;20050;-71
2023/06/13 04:14:38;;;;;;;5.80;2.38;;;17.20;95.40;;;;;;5005618;28;20111;-71
2023/06/13 04:17:06;;;;;;;5.88;2.72;;;17.30;95.50;;;;;;5003885;28;20053;-71
2023/06/13 04:19:31;;;;;;;4.40;2.63;;;17.20;95.40;;;;;;5005463;28;20045;-71
2023/06/13 04:21:59;;;;;;;3.85;2.70;;;17.20;95.30;;;;;;5005246;28;20042;-71
2023/06/13 04:24:25;;;;;;;3.05;2.38;;;17.30;95.30;;;;;;5004539;28;20755;-71
2023/06/13 04:26:50;;;;;;;3.60;2.35;;;17.30;95.30;;;;;;5004544;28;20072;-71
2023/06/13 04:29:18;;;;;;;6.40;3.42;;;17.30;95.30;;;;;;5005712;28;20042;-71
2023/06/13 04:31:45;;;;;;;5.60;2.60;;;17.30;95.20;;;;;;5004358;28;20129;-71
2023/06/13 04:34:11;;;;;;;3.50;2.30;;;17.30;95.20;;;;;;4984346;28;20042;-71
2023/06/13 04:36:38;;;;;;;3.88;2.80;;;17.30;95.20;;;;;;4984687;28;20608;-71
2023/06/13 04:39:08;;;;;;;6.15;2.67;;;17.30;95.20;;;;;;4985470;28;20178;-71
2023/06/13 04:41:34;;;;;;;4.10;2.83;;;17.30;95.20;;;;;;4983495;28;20129;-71
2023/06/13 04:44:10;;;;;;;4.75;3.08;;;17.30;95.20;;;;;;4985899;28;20104;-72
2023/06/13 04:46:41;;;;;;;3.83;2.25;;;17.30;95.10;;;;;;4987861;28;20159;-71
2023/06/13 04:49:06;;;;;;;4.28;2.45;;;17.30;95.10;;;;;;5003387;28;20050;-71
2023/06/13 04:51:33;;;;;;;7.03;3.33;;;17.30;95.00;;;;;;5003599;28;20129;-71
2023/06/13 04:54:00;;;;;;;15.07;3.42;;;17.30;95.00;;;;;;5000173;28;20049;-71
2023/06/13 04:56:27;;;;;;;3.15;2.30;;;17.30;94.90;;;;;;4984148;28;20050;-72
2023/06/13 04:58:52;;;;;;;7.43;2.85;;;17.30;94.90;;;;;;4984585;28;20042;-71
2023/06/13 05:01:20;;;;;;;5.57;2.30;;;17.30;95.00;;;;;;4991750;28;20442;-71
2023/06/13 05:03:51;;;;;;;4.10;2.25;;;17.30;94.90;;;;;;5004991;28;20042;-71
2023/06/13 05:06:17;;;;;;;5.18;2.72;;;17.40;95.00;;;;;;5000136;28;20050;-70
2023/06/13 05:08:42;;;;;;;2.40;2.13;;;17.40;94.90;;;;;;4983863;28;20053;-70
2023/06/13 05:11:08;;;;;;;2.65;2.28;;;17.40;94.80;;;;;;4984983;28;20443;-76
2023/06/13 05:13:34;;;;;;;3.58;2.10;;;17.40;94.90;;;;;;4987716;28;20143;-73
2023/06/13 05:16:00;;;;;;;4.80;2.47;;;17.40;94.70;;;;;;4994219;28;20050;-74
2023/06/13 05:18:29;;;;;;;3.95;2.42;;;17.40;94.70;;;;;;5002931;28;20053;-75
2023/06/13 05:20:56;;;;;;;5.35;2.50;;;17.40;94.50;;;;;;5003926;28;20554;-75
2023/06/13 05:23:22;;;;;;;4.22;2.65;;;17.50;94.60;;;;;;4997381;28;20038;-74
2023/06/13 05:25:48;;;;;;;2.85;2.20;;;17.50;94.40;;;;;;5004130;28;20040;-74
2023/06/13 05:28:16;;;;;;;3.42;2.30;;;17.50;94.40;;;;;;5001528;28;20049;-74
2023/06/13 05:30:42;;;;;;;3.28;2.65;;;17.50;94.40;;;;;;5003100;28;20046;-73
2023/06/13 05:33:08;;;;;;;2.83;2.25;;;17.50;94.40;;;;;;5003813;28;20046;-74
2023/06/13 05:35:33;;;;;;;3.72;2.22;;;17.60;94.30;;;;;;5003070;28;20476;-73
2023/06/13 05:37:59;;;;;;;6.55;2.55;;;17.60;94.20;;;;;;5004976;28;20108;-74
2023/06/13 05:40:25;;;;;;;4.32;2.35;;;17.60;94.20;;;;;;4999524;28;20058;-74
2023/06/13 05:42:51;;;;;;;5.43;2.72;;;17.70;94.20;;;;;;4997185;28;20044;-74
2023/06/13 05:45:16;;;;;;;3.58;2.20;;;17.70;94.00;;;;;;5002674;28;20083;-73
2023/06/13 05:47:42;;;;;;;5.00;2.38;;;17.70;93.90;;;;;;5003006;28;20476;-75
2023/06/13 05:50:07;;;;;;;4.07;2.60;;;17.70;93.80;;;;;;5000996;28;20042;-73
2023/06/13 05:52:36;;;;;;;4.40;2.28;;;17.70;93.80;;;;;;4992646;28;20057;-70
2023/06/13 05:55:04;;;;;;;5.63;2.67;;;17.80;94.10;;;;;;4997149;28;20042;-69
2023/06/13 05:57:40;;;;;;;4.15;2.38;;;17.80;93.80;;;;;;5002233;28;20057;-71
2023/06/13 06:00:08;;;;;;;5.10;2.28;;;17.80;93.60;;;;;;4979898;28;20491;-69
2023/06/13 06:02:35;;;;;;;4.40;2.33;;;17.80;93.70;;;;;;5006422;28;20065;-68
2023/06/13 06:05:01;;;;;;;4.43;2.65;;;17.90;93.60;;;;;;5001788;28;20038;-71
2023/06/13 06:07:26;;;;;;;3.65;2.47;;;17.90;93.50;;;;;;5014229;28;20297;-72
2023/06/13 06:09:52;;;;;;;3.90;2.10;;;17.90;93.60;;;;;;5007615;28;20104;-70
2023/06/13 06:12:17;;;;;;;4.35;2.50;;;18.00;93.50;;;;;;5000962;28;20124;-69
2023/06/13 06:14:43;;;;;;;4.20;2.55;;;18.00;93.40;;;;;;4998521;28;20046;-70
2023/06/13 06:17:09;;;;;;;5.45;2.63;;;18.00;93.60;;;;;;5005097;28;20053;-70
2023/06/13 06:19:34;;;;;;;4.40;2.30;;;18.00;93.40;;;;;;5005132;28;20084;-71
2023/06/13 06:22:00;;;;;;;3.63;2.25;;;18.10;93.40;;;;;;5004979;28;20399;-71
2023/06/13 06:24:25;;;;;;;3.15;2.20;;;18.10;93.40;;;;;;5007356;28;20104;-69
2023/06/13 06:26:51;;;;;;;2.47;1.92;;;18.20;93.50;;;;;;5005556;28;20087;-70
2023/06/13 06:29:17;;;;;;;4.53;2.25;;;18.20;93.30;;;;;;5007113;28;20432;-71
2023/06/13 06:31:42;;;;;;;3.58;2.75;;;18.20;93.30;;;;;;5005276;28;20496;-70
2023/06/13 06:34:08;;;;;;;5.15;2.58;;;18.30;93.20;;;;;;5004639;28;20111;-70
2023/06/13 06:36:33;;;;;;;4.30;2.53;;;18.30;93.00;;;;;;5006438;28;20076;-70
2023/06/13 06:38:59;;;;;;;3.40;1.98;;;18.30;92.90;;;;;;5005323;28;20512;-70
2023/06/13 06:41:25;;;;;;;3.65;2.20;;;18.40;93.00;;;;;;5005976;28;20045;-71
2023/06/13 06:43:50;;;;;;;5.70;2.28;;;18.50;92.80;;;;;;5006383;28;20551;-70
2023/06/13 06:46:16;;;;;;;3.00;1.80;;;18.50;92.50;;;;;;5005994;28;20077;-70
2023/06/13 06:48:41;;;;;;;4.32;2.05;;;18.60;92.50;;;;;;5006343;28;20049;-71
2023/06/13 06:51:07;;;;;;;3.30;2.17;;;18.60;92.40;;;;;;5005321;28;20116;-71
2023/06/13 06:53:32;;;;;;;3.33;1.80;;;18.70;92.70;;;;;;5005160;28;20049;-70
2023/06/13 06:55:58;;;;;;;5.32;2.33;;;18.70;92.20;;;;;;5005588;28;20062;-71
2023/06/13 06:58:24;;;;;;;2.92;2.05;;;18.80;92.10;;;;;;5005710;28;20723;-71
2023/06/13 07:00:49;;;;;;;2.25;1.88;;;18.80;92.00;;;;;;5006076;28;20112;-69
2023/06/13 07:03:15;;;;;;;3.33;2.25;;;18.90;92.00;;;;;;5004345;28;20064;-71
2023/06/13 07:05:41;;;;;;;6.00;2.75;;;18.90;91.90;;;;;;5006003;28;20050;-70
2023/06/13 07:08:06;;;;;;;4.60;1.98;;;19.00;91.80;;;;;;5004327;28;20492;-69
2023/06/13 07:10:32;;;;;;;4.10;1.95;;;19.10;91.80;;;;;;5006058;28;20121;-71
2023/06/13 07:12:57;;;;;;;3.42;2.20;;;19.10;91.70;;;;;;5002942;28;20507;-71
2023/06/13 07:15:23;;;;;;;5.22;2.10;;;19.20;91.50;;;;;;5005538;28;20531;-71
2023/06/13 07:17:50;;;;;;;2.92;1.60;;;19.30;91.40;;;;;;5005070;28;20535;-71
2023/06/13 07:20:16;;;;;;;3.95;2.33;;;19.30;91.50;;;;;;5005261;28;20041;-69
2023/06/13 07:22:41;;;;;;;2.50;2.10;;;19.40;91.50;;;;;;5005245;28;20048;-70
2023/06/13 07:25:07;;;;;;;4.40;2.05;;;19.40;91.30;;;;;;5004820;28;20041;-71
2023/06/13 07:27:33;;;;;;;3.72;2.17;;;19.50;91.30;;;;;;5004726;28;20129;-71
2023/06/13 07:29:58;;;;;;;2.78;1.95;;;19.50;91.10;;;;;;5004702;28;20081;-70
2023/06/13 07:32:24;;;;;;;2.35;2.00;;;19.60;90.90;;;;;;5005360;28;20053;-70
2023/06/13 07:34:50;;;;;;;2.83;1.92;;;19.70;90.90;;;;;;5003876;28;20585;-71
2023/06/13 07:37:15;;;;;;;2.03;1.40;;;19.70;90.60;;;;;;5004965;28;20374;-71
2023/06/13 07:39:41;;;;;;;1.65;1.52;;;19.80;90.40;;;;;;5005580;28;20121;-71
2023/06/13 07:42:07;;;;;;;2.10;1.58;;;19.90;90.20;;;;;;5002842;28;20076;-71
2023/06/13 07:44:32;;;;;;;3.15;2.00;;;19.90;90.40;;;;;;5003713;28;20042;-70
2023/06/13 07:46:58;;;;;;;3.15;2.03;;;19.90;90.30;;;;;;5005717;28;20552;-70
2023/06/13 07:49:24;;;;;;;3.63;1.67;;;20.00;90.60;;;;;;5004610;28;20046;-71
2023/06/13 07:51:50;;;;;;;2.78;1.80;;;20.00;90.00;;;;;;5005608;28;20507;-71
2023/06/13 07:54:15;;;;;;;3.10;1.77;;;20.00;90.10;;;;;;5003853;28;20115;-69
2023/06/13 07:56:41;;;;;;;5.13;1.98;;;20.10;90.10;;;;;;5002431;28;20061;-71
2023/06/13 07:59:06;;;;;;;4.20;1.95;;;20.10;89.80;;;;;;5003530;28;20507;-70
2023/06/13 08:01:32;;;;;;;3.65;2.00;;;20.20;90.20;;;;;;4996374;28;20046;-71
2023/06/13 08:03:58;;;;;;;1.45;1.33;;;20.20;89.30;;;;;;4984697;28;20397;-70
2023/06/13 08:06:23;;;;;;;2.05;1.42;;;20.30;89.30;;;;;;4984901;28;20042;-70
2023/06/13 08:08:49;;;;;;;4.05;1.35;;;20.30;88.70;;;;;;4984975;28;20346;-70
2023/06/13 08:11:15;;;;;;;2.60;1.70;;;20.40;88.20;;;;;;4983666;28;20046;-70
2023/06/13 08:13:41;;;;;;;2.13;1.38;;;20.40;87.70;;;;;;4984011;28;20229;-71
2023/06/13 08:16:06;;;;;;;5.07;2.17;;;20.40;87.70;;;;;;4985038;28;20569;-71
2023/06/13 08:18:32;;;;;;;3.90;1.67;;;20.50;87.50;;;;;;4983642;28;20051;-70
2023/06/13 08:20:57;;;;;;;6.05;1.40;;;20.50;86.50;;;;;;4984965;28;20042;-70
2023/06/13 08:23:23;;;;;;;2.17;1.55;;;20.60;86.50;;;;;;4984882;28;20042;-71
2023/06/13 08:25:49;;;;;;;2.58;1.42;;;20.70;86.60;;;;;;4982515;28;20086;-71
2023/06/13 08:28:14;;;;;;;2.72;1.58;;;20.70;85.80;;;;;;4984633;28;20077;-68
2023/06/13 08:30:42;;;;;;;3.13;1.45;;;20.80;85.20;;;;;;4983516;28;20046;-68
2023/06/13 08:33:10;;;;;;;2.08;1.40;;;20.90;84.30;;;;;;4984153;28;20239;-68
2023/06/13 08:35:36;;;;;;;3.15;1.75;;;20.90;85.00;;;;;;4984572;28;20046;-68
2023/06/13 08:38:01;;;;;;;3.00;1.83;;;21.00;84.20;;;;;;4984213;28;20046;-69
2023/06/13 08:40:27;;;;;;;3.55;1.83;;;21.10;83.80;;;;;;4983947;28;20382;-69
2023/06/13 08:42:53;;;;;;;2.33;1.65;;;21.10;82.90;;;;;;4984036;28;20042;-68
2023/06/13 08:45:19;;;;;;;1.65;1.23;;;21.10;83.70;;;;;;4984210;28;20121;-69
2023/06/13 08:47:47;;;;;;;2.28;1.75;;;21.20;82.80;;;;;;4984612;28;20499;-68
2023/06/13 08:50:24;;;;;;;2.97;1.63;;;21.30;82.70;;;;;;4983949;28;20088;-68
2023/06/13 08:52:52;;;;;;;3.45;1.70;;;21.30;80.00;;;;;;4984290;28;20052;-68
2023/06/13 08:55:22;;;;;;;2.45;1.83;;;21.40;82.40;;;;;;4984648;28;20046;-68
2023/06/13 08:57:52;;;;;;;1.95;1.33;;;21.40;80.20;;;;;;4982238;28;20137;-69
2023/06/13 09:00:18;;;;;;;4.18;2.28;;;21.50;79.60;;;;;;4984600;28;20034;-69
2023/06/13 09:02:46;;;;;;;3.88;2.42;;;21.50;80.90;;;;;;5001367;28;20514;-68
2023/06/13 09:05:15;;;;;;;2.33;1.85;;;21.50;80.30;;;;;;5003484;28;20038;-68
2023/06/13 09:07:46;;;;;;;1.63;1.50;;;21.60;80.50;;;;;;5002775;28;20054;-69
2023/06/13 09:10:12;;;;;;;2.63;1.75;;;21.60;78.80;;;;;;5003843;28;20164;-69
2023/06/13 09:12:46;;;;;;;2.85;1.83;;;21.60;79.80;;;;;;5002923;28;20141;-68
2023/06/13 09:15:11;;;;;;;3.65;2.35;;;21.60;79.20;;;;;;5002129;28;20045;-69
2023/06/13 09:17:37;;;;;;;3.15;1.52;;;21.70;81.00;;;;;;5002475;28;20484;-69
2023/06/13 09:20:08;;;;;;;2.78;1.85;;;21.80;80.70;;;;;;5003576;28;20390;-68
2023/06/13 09:22:34;;;;;;;3.08;1.75;;;21.80;80.20;;;;;;5003583;28;20049;-68
2023/06/13 09:25:00;;;;;;;2.47;2.13;;;21.80;80.50;;;;;;5001970;28;20574;-69
2023/06/13 09:27:29;;;;;;;3.05;2.40;;;21.90;80.50;;;;;;5003135;28;20330;-68
2023/06/13 09:29:59;;;;;;;3.05;1.63;;;21.90;77.80;;;;;;5003823;28;20065;-67
2023/06/13 09:32:25;;;;;;;2.55;1.75;;;22.00;78.50;;;;;;5002903;28;20455;-67
2023/06/13 09:34:51;;;;;;;3.15;2.25;;;22.00;79.80;;;;;;5005047;28;20052;-68
2023/06/13 09:37:17;;;;;;;2.88;1.92;;;22.00;79.60;;;;;;5007220;28;20057;-69
2023/06/13 09:39:53;;;;;;;2.00;1.80;;;22.10;79.70;;;;;;5002863;28;20068;-68
2023/06/13 09:42:23;;;;;;;2.72;2.00;;;22.10;78.40;;;;;;5005397;28;20124;-68
2023/06/13 09:44:52;;;;;;;3.05;2.15;;;22.20;77.60;;;;;;5007425;28;20123;-69
2023/06/13 09:47:22;;;;;;;2.88;1.95;;;22.20;77.90;;;;;;5007704;28;20038;-67
2023/06/13 09:49:55;;;;;;;3.95;2.00;;;22.20;77.90;;;;;;5007879;28;20411;-68
2023/06/13 09:52:25;;;;;;;3.78;1.92;;;22.20;77.40;;;;;;5007682;28;20164;-70
2023/06/13 09:54:52;;;;;;;3.03;2.30;;;22.30;78.00;;;;;;5002265;28;20073;-68
2023/06/13 09:57:21;;;;;;;2.22;2.03;;;22.30;78.20;;;;;;5001821;28;20435;-69
2023/06/13 09:59:48;;;;;;;2.72;2.25;;;22.40;74.30;;;;;;5003541;28;20044;-70
2023/06/13 10:02:20;;;;;;;3.80;2.28;;;22.40;77.40;;;;;;5005440;28;20492;-70
2023/06/13 10:04:50;;;;;;;2.75;1.90;;;22.30;75.30;;;;;;5004942;28;20038;-70
2023/06/13 10:07:16;;;;;;;2.70;1.80;;;22.40;77.10;;;;;;5006283;28;20044;-69
2023/06/13 10:09:41;;;;;;;2.67;2.00;;;22.40;76.30;;;;;;5007064;28;20042;-68
2023/06/13 10:12:21;;;;;;;3.38;2.03;;;22.40;74.30;;;;;;5006018;28;20046;-68
2023/06/13 10:14:56;;;;;;;5.30;1.77;;;22.50;69.30;;;;;;5001491;28;20046;-69
2023/06/13 10:17:23;;;;;;;5.03;2.00;;;22.50;67.20;;;;;;4998702;28;20523;-68
2023/06/13 10:19:55;;;;;;;3.50;1.67;;;22.40;74.80;;;;;;4994635;28;20053;-68
2023/06/13 10:22:22;;;;;;;3.03;2.25;;;22.50;72.60;;;;;;5005602;28;20046;-68
2023/06/13 10:24:50;;;;;;;2.17;1.42;;;22.50;76.00;;;;;;5007159;28;20084;-69
2023/06/13 10:27:19;;;;;;;1.83;1.52;;;22.60;74.80;;;;;;5005923;28;20049;-69
2023/06/13 10:30:06;;;;;;;2.85;1.40;;;22.50;75.20;;;;;;5007081;28;20038;-67
2023/06/13 10:32:52;;;;;;;2.95;1.70;;;22.60;71.70;;;;;;5002679;28;20042;-69
2023/06/13 10:35:38;;;;;;;3.00;1.80;;;22.50;71.60;;;;;;5003333;28;20053;-68
2023/06/13 10:38:48;;;;;;;2.22;1.40;;;22.50;67.90;;;;;;4994493;28;20054;-69
2023/06/13 10:41:47;;;;;;;2.10;1.50;;;22.50;67.90;;;;;;4911913;29;20079;-68
2023/06/13 10:44:27;;;;;;;2.30;1.90;;;22.50;67.50;;;;;;4980276;28;20498;-68
2023/06/13 10:46:53;;;;;;;2.55;1.90;;;22.50;72.80;;;;;;5004379;28;20041;-69
2023/06/13 10:49:18;;;;;;;1.85;1.50;;;22.50;76.60;;;;;;5004458;28;20480;-69
2023/06/13 10:51:45;;;;;;;1.40;1.30;;;22.50;77.40;;;;;;5003216;28;20080;-68
2023/06/13 10:54:15;;;;;;;1.55;1.38;;;22.50;77.50;;;;;;5005328;28;20046;-70
2023/06/13 10:56:43;;;;;;;4.05;1.70;;;22.50;78.10;;;;;;4985731;28;20039;-69
2023/06/13 10:59:10;;;;;;;2.10;1.52;;;22.50;78.90;;;;;;4992511;28;20393;-68
2023/06/13 11:01:39;;;;;;;2.13;1.52;;;22.50;79.20;;;;;;5006094;28;20437;-69
2023/06/13 11:04:16;;;;;;;2.85;1.55;;;22.50;78.50;;;;;;5004718;28;20046;-68
2023/06/13 11:06:44;;;;;;;2.30;1.42;;;22.40;75.50;;;;;;5006454;28;20041;-68
2023/06/13 11:09:25;;;;;;;1.58;1.35;;;22.40;78.00;;;;;;5000898;28;20049;-68
2023/06/13 11:12:00;;;;;;;4.45;1.95;;;22.40;76.40;;;;;;5002373;28;20096;-68
2023/06/13 11:14:37;;;;;;;2.00;1.65;;;22.40;76.60;;;;;;5004424;28;20133;-69
2023/06/13 11:17:03;;;;;;;2.80;2.30;;;22.40;78.80;;;;;;5003127;28;20046;-67
2023/06/13 11:19:32;;;;;;;2.70;1.60;;;22.40;79.20;;;;;;4986835;28;20046;-67
2023/06/13 11:22:02;;;;;;;5.50;2.42;;;22.40;79.80;;;;;;5002559;28;20066;-66
2023/06/13 11:24:29;;;;;;;3.85;1.83;;;22.40;80.30;;;;;;5004790;28;20089;-68
2023/06/13 11:26:57;;;;;;;5.75;1.60;;;22.40;80.70;;;;;;5004896;28;20085;-70
2023/06/13 11:29:23;;;;;;;2.05;1.30;;;22.40;79.80;;;;;;5004173;28;20093;-67
2023/06/13 11:31:54;;;;;;;3.70;1.75;;;22.30;80.70;;;;;;5003332;28;20735;-69
2023/06/13 11:34:24;;;;;;;2.05;1.27;;;22.30;79.80;;;;;;5004589;28;20702;-66
2023/06/13 11:36:55;;;;;;;3.50;1.38;;;22.30;79.70;;;;;;5006105;28;20058;-67
2023/06/13 11:39:30;;;;;;;1.40;1.27;;;22.30;81.10;;;;;;5004162;28;20496;-69
2023/06/13 11:41:56;;;;;;;3.50;1.48;;;22.30;80.40;;;;;;4997172;28;20046;-68
2023/06/13 11:44:22;;;;;;;2.05;1.30;;;22.30;81.30;;;;;;5004177;28;20050;-68
2023/06/13 11:46:48;;;;;;;2.75;1.77;;;22.30;81.80;;;;;;5012781;28;20080;-68
2023/06/13 11:49:15;;;;;;;1.92;1.73;;;22.30;82.10;;;;;;5016958;28;20107;-68
2023/06/13 11:51:44;;;;;;;3.28;1.40;;;22.30;81.90;;;;;;5012033;28;20049;-68
2023/06/13 11:54:11;;;;;;;1.80;1.20;;;22.30;82.50;;;;;;5004337;28;20080;-67
2023/06/13 11:56:40;;;;;;;3.85;1.13;;;22.30;82.50;;;;;;5004430;28;20488;-68
2023/06/13 11:59:17;;;;;;;3.75;1.20;;;22.20;82.80;;;;;;5003885;28;20088;-76
2023/06/13 12:01:49;;;;;;;2.67;1.40;;;22.30;82.10;;;;;;4998753;28;20050;-69
2023/06/13 12:04:18;;;;;;;2.25;1.17;;;22.30;81.40;;;;;;5014673;28;20064;-69
2023/06/13 12:06:44;;;;;;;2.28;2.03;;;22.30;83.30;;;;;;5012879;28;20073;-69
2023/06/13 12:09:10;;;;;;;2.33;1.00;;;22.20;83.10;;;;;;5003746;28;20073;-69
2023/06/13 12:11:36;;;;;;;2.28;1.20;;;22.20;83.20;;;;;;5002041;28;20038;-69
2023/06/13 12:14:03;;;;;;;2.08;1.00;;;22.20;84.30;;;;;;5009928;28;20029;-69
2023/06/13 12:16:34;;;;;;;2.17;1.13;;;22.20;83.30;;;;;;5001848;28;20057;-69
2023/06/13 12:19:00;;;;;;;1.73;1.10;;;22.30;83.40;;;;;;4997946;28;20045;-71
2023/06/13 12:21:31;;;;;;;1.63;1.50;;;22.20;83.00;;;;;;5006060;28;20056;-70
2023/06/13 12:23:59;;;;;;;1.60;1.00;;;22.20;83.40;;;;;;4999640;28;20121;-73
2023/06/13 12:26:26;;;;;;;1.67;1.30;;;22.20;82.40;;;;;;5005368;28;20707;-73
2023/06/13 12:28:55;;;;;;;1.10;0.90;;;22.30;81.90;;;;;;5007396;28;20033;-73
2023/06/13 12:31:30;;;;;;;1.40;1.00;;;22.30;81.10;;;;;;5000280;28;20464;-73
2023/06/13 12:34:08;;;;;;;1.20;0.93;;;22.30;76.10;;;;;;5013277;28;20175;-73
2023/06/13 12:36:40;;;;;;;1.30;1.13;;;22.30;71.80;;;;;;5005586;28;20084;-74
2023/06/13 12:39:09;;;;;;;1.45;1.27;;;22.30;78.90;;;;;;5012678;28;20500;-73
2023/06/13 12:41:37;;;;;;;1.08;0.98;;;22.30;79.50;;;;;;5000994;28;20708;-72
2023/06/13 12:44:02;;;;;;;1.40;1.17;;;22.30;79.20;;;;;;5003564;28;20982;-73
2023/06/13 12:46:28;;;;;;;1.25;1.05;;;22.40;78.80;;;;;;4998316;28;20165;-76
2023/06/13 12:48:55;;;;;;;1.45;1.35;;;22.40;78.70;;;;;;5000722;28;20516;-74
2023/06/13 12:51:28;;;;;;;1.42;1.20;;;22.30;78.20;;;;;;4999896;28;20042;-74